Terminal Aerodrome Forecast
Issued by NWS

Home | Current Version | Previous Version | Text Only | Print | Product List | Glossary On
Versions: 1 2 3 4 5 6 7 8 9 10 11 12 13
926
FTUS45 KABQ 271139
TAFFMN
TAF
KFMN 271139Z 2712/2812 VRB05KT P6SM VCSH SCT025 OVC050
      TEMPO 2712/2714 -RA BKN035
     FM271500 29015G25KT P6SM OVC050
     FM271800 30025G35KT P6SM BKN070
     FM280200 32011KT P6SM BKN100
     FM280600 28007KT P6SM BKN100=

USA.gov is the U.S. government's official web portal to all federal, state and local government web resources and services.